Time;durP1;ratioP1;P1;durP2;ratioP2;P2;SDS_P1;SDS_P2;PMS_P1;PMS_P2;Temp;Humidity;BMP_temperature;BMP_pressure;BME280_temperature;BME280_humidity;BME280_pressure;Samples;Min_cycle;Max_cycle;Signal;HPM_P1;HPM_P2
2022/07/22 00:00:19;;;;;;;15.10;6.78;;;;;;;21.06;66.71;100699.06;1718437;83;25789;-84
2022/07/22 00:02:47;;;;;;;15.45;6.72;;;;;;;21.08;66.90;100700.47;1718308;82;25848;-83
2022/07/22 00:05:14;;;;;;;11.22;6.87;;;;;;;21.08;66.87;100699.62;1719581;83;25987;-83
2022/07/22 00:07:40;;;;;;;10.95;6.72;;;;;;;21.08;66.82;100700.99;1719741;82;27446;-82
2022/07/22 00:10:10;;;;;;;15.95;7.47;;;;;;;21.06;66.75;100703.98;1719637;83;25862;-83
2022/07/22 00:12:38;;;;;;;10.05;6.78;;;;;;;21.04;66.70;100707.46;1719219;81;26504;-83
2022/07/22 00:15:07;;;;;;;12.50;7.53;;;;;;;21.00;66.80;100700.05;1719568;83;26553;-85
2022/07/22 00:17:33;;;;;;;10.15;7.03;;;;;;;20.97;66.91;100708.17;1719703;83;25803;-84
2022/07/22 00:19:59;;;;;;;13.22;6.70;;;;;;;20.96;66.87;100702.95;1719265;83;27466;-84
2022/07/22 00:22:26;;;;;;;13.80;6.87;;;;;;;20.93;66.88;100708.40;1718642;83;25833;-84
2022/07/22 00:24:52;;;;;;;14.25;7.30;;;;;;;20.89;66.86;100706.42;1717435;83;25819;-83
2022/07/22 00:27:18;;;;;;;9.53;6.90;;;;;;;20.86;67.05;100705.02;1718023;82;25350;-83
2022/07/22 00:29:45;;;;;;;13.85;7.67;;;;;;;20.86;67.08;100704.19;1718589;83;26486;-83
2022/07/22 00:32:13;;;;;;;11.15;6.83;;;;;;;20.82;67.14;100697.08;1718170;83;27535;-83
2022/07/22 00:34:39;;;;;;;13.80;7.30;;;;;;;20.75;67.03;100695.89;1718089;83;26361;-84
2022/07/22 00:37:06;;;;;;;12.20;7.95;;;;;;;20.70;67.18;100705.34;1717595;83;25825;-83
2022/07/22 00:39:33;;;;;;;11.03;6.90;;;;;;;20.67;67.22;100692.77;1721454;81;25805;-83
2022/07/22 00:42:00;;;;;;;11.57;7.33;;;;;;;20.64;67.26;100694.63;1717927;83;25937;-84
2022/07/22 00:44:26;;;;;;;10.18;6.78;;;;;;;20.60;67.41;100698.39;1722859;83;28759;-83
2022/07/22 00:46:53;;;;;;;10.43;6.25;;;;;;;20.58;67.55;100695.09;1717926;83;26031;-83
2022/07/22 00:49:20;;;;;;;8.53;6.85;;;;;;;20.56;67.58;100697.78;1718542;83;25825;-83
2022/07/22 00:51:46;;;;;;;10.88;6.92;;;;;;;20.53;67.77;100698.30;1717663;82;26799;-83
2022/07/22 00:54:14;;;;;;;17.15;7.80;;;;;;;20.49;67.77;100697.95;1718075;83;25759;-84
2022/07/22 00:56:41;;;;;;;9.95;6.67;;;;;;;20.45;67.78;100697.33;1719592;83;27459;-84
2022/07/22 00:59:11;;;;;;;10.75;6.83;;;;;;;20.41;67.88;100697.55;1708127;83;25836;-83
2022/07/22 01:01:38;;;;;;;12.00;6.63;;;;;;;20.41;67.91;100698.37;1718862;82;26010;-83
2022/07/22 01:04:05;;;;;;;10.95;5.87;;;;;;;20.38;67.93;100696.70;1719288;83;26458;-82
2022/07/22 01:06:32;;;;;;;9.25;6.55;;;;;;;20.33;68.01;100702.05;1718626;83;25980;-84
2022/07/22 01:08:59;;;;;;;12.03;6.17;;;;;;;20.32;68.13;100704.47;1717721;83;28476;-84
2022/07/22 01:11:26;;;;;;;9.15;6.22;;;;;;;20.30;68.16;100710.69;1718256;83;26005;-83
2022/07/22 01:13:54;;;;;;;13.53;7.30;;;;;;;20.27;68.28;100712.56;1719205;83;25384;-83
2022/07/22 01:16:22;;;;;;;10.20;7.25;;;;;;;20.24;68.44;100726.13;1718246;83;25992;-84
2022/07/22 01:18:48;;;;;;;13.00;7.35;;;;;;;20.13;68.79;100758.26;1718347;82;25774;-83
2022/07/22 01:21:16;;;;;;;13.70;7.62;;;;;;;19.98;69.15;100777.85;1718398;82;27446;-83
2022/07/22 01:23:43;;;;;;;16.70;7.05;;;;;;;19.94;69.60;100741.34;1718794;83;25997;-84
2022/07/22 01:26:10;;;;;;;11.48;6.42;;;;;;;20.00;69.88;100766.72;1718514;83;25799;-83
2022/07/22 01:28:37;;;;;;;14.25;6.78;;;;;;;19.99;69.83;100763.73;1718545;83;25896;-84
2022/07/22 01:31:04;;;;;;;9.50;7.00;;;;;;;20.06;69.82;100735.03;1718182;82;26066;-83
2022/07/22 01:33:31;;;;;;;18.42;7.53;;;;;;;20.04;69.95;100763.80;1718236;83;27450;-83
2022/07/22 01:35:58;;;;;;;12.43;6.47;;;;;;;19.97;70.04;100755.80;1718993;83;26496;-84
2022/07/22 01:38:24;;;;;;;11.33;6.15;;;;;;;20.01;70.15;100752.07;1718814;83;25895;-84
2022/07/22 01:40:51;;;;;;;13.83;7.78;;;;;;;19.99;70.16;100771.89;1718380;83;26159;-84
2022/07/22 01:43:20;;;;;;;10.70;6.35;;;;;;;20.02;70.06;100748.83;1718336;83;25357;-84
2022/07/22 01:45:51;;;;;;;9.43;6.17;;;;;;;20.02;70.01;100724.35;1718814;82;28239;-85
2022/07/22 01:48:18;;;;;;;8.77;5.80;;;;;;;20.03;69.90;100732.78;1717987;83;25544;-83
2022/07/22 01:50:45;;;;;;;11.50;6.30;;;;;;;20.02;70.00;100727.88;1719469;83;25875;-83
2022/07/22 01:53:13;;;;;;;11.15;6.45;;;;;;;20.02;69.93;100727.88;1718215;82;26446;-84
2022/07/22 01:55:39;;;;;;;14.23;8.60;;;;;;;20.02;69.91;100731.95;1717860;83;25874;-83
2022/07/22 01:58:06;;;;;;;9.48;6.72;;;;;;;19.93;69.93;100736.16;1718343;83;27452;-84
2022/07/22 02:00:35;;;;;;;12.90;6.72;;;;;;;19.90;70.07;100746.16;1717751;83;26250;-84
2022/07/22 02:03:05;;;;;;;12.40;6.72;;;;;;;19.89;70.00;100735.80;1717530;82;25803;-83
2022/07/22 02:05:32;;;;;;;15.78;6.37;;;;;;;19.86;69.90;100728.16;1719227;82;26506;-83
2022/07/22 02:08:04;;;;;;;10.85;5.70;;;;;;;19.86;70.03;100731.41;1718809;82;25870;-82
2022/07/22 02:10:33;;;;;;;10.70;6.15;;;;;;;19.81;69.93;100734.84;1717535;83;28502;-83
2022/07/22 02:12:59;;;;;;;9.53;5.83;;;;;;;19.80;69.98;100728.30;1707230;83;25947;-83
2022/07/22 02:15:27;;;;;;;10.75;6.80;;;;;;;19.76;69.99;100723.88;1698180;83;26106;-82
2022/07/22 02:17:56;;;;;;;14.93;9.83;;;;;;;19.71;70.01;100723.80;1718227;82;25988;-82
2022/07/22 02:20:23;;;;;;;14.95;7.80;;;;;;;19.71;70.25;100717.53;1718575;83;25861;-82
2022/07/22 02:22:51;;;;;;;12.98;6.90;;;;;;;19.67;70.01;100714.48;1717923;82;27459;-82
2022/07/22 02:25:18;;;;;;;11.18;6.90;;;;;;;19.60;70.00;100707.00;1718457;83;25750;-82
2022/07/22 02:27:44;;;;;;;11.88;6.35;;;;;;;19.52;69.78;100702.48;1718279;83;25572;-81
2022/07/22 02:30:11;;;;;;;9.78;6.20;;;;;;;19.46;69.83;100701.55;1698472;83;25856;-82
2022/07/22 02:32:38;;;;;;;8.58;6.78;;;;;;;19.43;70.17;100699.34;1719582;83;26022;-82
2022/07/22 02:35:07;;;;;;;8.30;5.87;;;;;;;19.41;70.56;100704.71;1718123;83;27455;-82
2022/07/22 02:37:34;;;;;;;8.90;6.33;;;;;;;19.38;70.74;100699.75;1718174;83;25559;-83
2022/07/22 02:40:00;;;;;;;12.47;6.67;;;;;;;19.33;71.02;100701.00;1718672;83;25888;-84
2022/07/22 02:42:27;;;;;;;11.73;6.50;;;;;;;19.30;71.01;100703.66;1722026;81;25829;-82
2022/07/22 02:44:57;;;;;;;10.58;6.58;;;;;;;19.28;71.23;100706.31;1721531;81;26003;-82
2022/07/22 02:47:23;;;;;;;11.48;6.12;;;;;;;19.29;71.04;100710.70;1724194;83;27517;-83
2022/07/22 02:49:52;;;;;;;11.15;6.90;;;;;;;19.29;71.15;100708.78;1718581;83;25928;-82
2022/07/22 02:52:18;;;;;;;14.78;7.50;;;;;;;19.29;71.13;100712.85;1718611;82;25882;-82
2022/07/22 02:54:45;;;;;;;13.35;8.43;;;;;;;19.25;71.35;100728.81;1718600;83;26466;-82
2022/07/22 02:57:11;;;;;;;10.08;7.15;;;;;;;19.17;71.47;100730.55;1719020;83;25919;-81
2022/07/22 02:59:38;;;;;;;11.38;6.95;;;;;;;19.17;71.66;100731.08;1718248;82;27074;-81
2022/07/22 03:02:04;;;;;;;13.18;8.30;;;;;;;19.18;71.74;100721.88;1718712;82;26657;-82
2022/07/22 03:04:31;;;;;;;10.90;8.10;;;;;;;19.18;71.81;100721.33;1718736;83;25808;-82
2022/07/22 03:06:57;;;;;;;10.15;6.50;;;;;;;19.19;71.87;100722.16;1718335;83;25851;-83
2022/07/22 03:09:24;;;;;;;9.73;6.00;;;;;;;19.20;71.62;100717.03;1719367;83;25312;-83
2022/07/22 03:11:51;;;;;;;8.68;6.17;;;;;;;19.20;71.50;100711.05;1718705;83;27447;-82
2022/07/22 03:14:18;;;;;;;9.93;6.12;;;;;;;19.20;71.58;100714.32;1698462;83;25773;-82
2022/07/22 03:16:45;;;;;;;10.40;6.80;;;;;;;19.21;71.55;100716.78;1719259;83;25795;-82
2022/07/22 03:19:11;;;;;;;10.03;7.15;;;;;;;19.19;71.63;100722.99;1719044;83;25873;-82
2022/07/22 03:21:38;;;;;;;12.82;7.90;;;;;;;19.20;71.78;100721.11;1718771;83;25958;-82
2022/07/22 03:24:05;;;;;;;13.53;6.83;;;;;;;19.23;71.84;100714.66;1718558;83;28101;-83
2022/07/22 03:26:31;;;;;;;13.25;7.55;;;;;;;19.18;71.75;100713.18;1718515;83;25960;-82
2022/07/22 03:28:58;;;;;;;11.95;7.30;;;;;;;19.17;71.88;100712.07;1719427;83;25913;-82
2022/07/22 03:31:25;;;;;;;12.73;7.00;;;;;;;19.19;71.76;100701.27;1718611;82;25781;-82
2022/07/22 03:33:52;;;;;;;10.03;6.45;;;;;;;19.20;71.50;100705.62;1717806;83;25978;-82
2022/07/22 03:36:19;;;;;;;12.33;6.50;;;;;;;19.24;71.43;100710.89;1699175;83;28361;-82
2022/07/22 03:38:46;;;;;;;16.15;7.03;;;;;;;19.30;71.47;100711.80;1718835;83;25790;-82
2022/07/22 03:41:13;;;;;;;10.65;6.75;;;;;;;19.33;71.45;100702.36;1718666;82;25860;-82
2022/07/22 03:43:40;;;;;;;10.63;6.78;;;;;;;19.34;71.33;100710.28;1718147;83;26077;-83
2022/07/22 03:46:07;;;;;;;12.28;6.85;;;;;;;19.34;71.32;100713.00;1718636;83;25826;-81
2022/07/22 03:48:33;;;;;;;17.82;7.53;;;;;;;19.38;71.51;100703.82;1711143;83;28328;-82
2022/07/22 03:50:59;;;;;;;12.47;6.85;;;;;;;19.42;71.42;100708.53;1718736;82;25902;-83
2022/07/22 03:53:27;;;;;;;10.23;7.17;;;;;;;19.47;71.39;100706.45;1718589;83;25771;-82
2022/07/22 03:55:53;;;;;;;10.32;6.75;;;;;;;19.52;71.38;100708.76;1719609;83;26001;-82
2022/07/22 03:58:19;;;;;;;9.88;6.87;;;;;;;19.56;71.46;100710.44;1718042;83;25938;-83
2022/07/22 04:00:46;;;;;;;13.45;7.30;;;;;;;19.59;71.54;100711.33;1718692;83;27449;-82
2022/07/22 04:03:12;;;;;;;9.13;6.70;;;;;;;19.63;71.71;100709.22;1717876;82;26544;-82
2022/07/22 04:05:45;;;;;;;13.00;7.33;;;;;;;19.66;71.81;100699.23;1718025;83;25870;-82
2022/07/22 04:08:13;;;;;;;12.15;7.47;;;;;;;19.70;71.89;100701.75;1718297;83;25784;-81
2022/07/22 04:10:42;;;;;;;10.23;6.90;;;;;;;19.74;71.91;100705.63;1720107;83;25629;-82
2022/07/22 04:13:08;;;;;;;9.23;6.17;;;;;;;19.81;71.89;100712.27;1718363;83;28326;-82
2022/07/22 04:15:39;;;;;;;12.45;6.55;;;;;;;19.89;71.99;100709.14;1717773;83;25993;-81
2022/07/22 04:18:06;;;;;;;11.03;5.67;;;;;;;19.96;71.90;100707.94;1719356;83;25984;-82
2022/07/22 04:20:32;;;;;;;9.60;6.12;;;;;;;20.06;72.03;100711.91;1718080;82;26545;-84
2022/07/22 04:23:14;;;;;;;9.30;6.22;;;;;;;20.11;72.00;100704.65;1721953;81;26557;-83
2022/07/22 04:25:40;;;;;;;13.88;6.20;;;;;;;20.19;72.12;100711.59;1726909;81;27444;-82
2022/07/22 04:28:07;;;;;;;13.58;6.85;;;;;;;20.25;72.11;100705.99;1717309;82;25350;-83
2022/07/22 04:30:34;;;;;;;10.30;5.90;;;;;;;20.33;72.27;100698.80;1718234;81;25863;-83
2022/07/22 04:33:00;;;;;;;9.63;6.15;;;;;;;20.42;72.21;100708.73;1698586;83;25760;-83
2022/07/22 04:35:26;;;;;;;11.20;5.62;;;;;;;20.45;72.17;100700.88;1677140;84;25870;-82
2022/07/22 04:37:55;;;;;;;9.78;5.65;;;;;;;20.50;72.15;100702.86;1717039;82;27484;-82
2022/07/22 04:40:22;;;;;;;11.22;6.15;;;;;;;20.60;72.26;100696.20;1722412;82;25282;-83
2022/07/22 04:42:49;;;;;;;9.50;6.40;;;;;;;20.69;72.17;100692.81;1720818;81;25788;-82
2022/07/22 04:45:16;;;;;;;11.08;6.12;;;;;;;20.78;72.23;100693.21;1716862;82;25747;-82
2022/07/22 04:47:42;;;;;;;12.82;6.80;;;;;;;20.81;71.97;100696.77;1700573;82;25946;-83
2022/07/22 04:50:09;;;;;;;9.58;6.50;;;;;;;20.85;72.00;100699.84;1718072;81;27464;-82
2022/07/22 04:52:36;;;;;;;9.63;6.28;;;;;;;20.85;72.28;100702.56;1724559;81;25337;-83
2022/07/22 04:55:04;;;;;;;8.55;5.92;;;;;;;20.91;72.65;100693.38;1701363;83;25827;-83
2022/07/22 04:57:31;;;;;;;14.13;6.47;;;;;;;21.01;72.87;100695.70;1724956;81;25940;-82
2022/07/22 04:59:58;;;;;;;9.43;6.30;;;;;;;21.09;72.69;100695.28;1704342;82;25933;-82
2022/07/22 05:02:24;;;;;;;8.65;6.08;;;;;;;21.19;72.66;100701.41;1719218;81;28388;-83
2022/07/22 05:04:50;;;;;;;11.50;7.40;;;;;;;21.23;72.85;100703.38;1719389;81;25891;-83
2022/07/22 05:07:17;;;;;;;22.05;7.30;;;;;;;21.28;73.04;100695.78;1720777;82;25618;-82
2022/07/22 05:09:43;;;;;;;10.80;6.03;;;;;;;21.36;73.47;100693.42;1727702;81;26174;-83
2022/07/22 05:12:11;;;;;;;11.73;6.28;;;;;;;21.47;73.35;100692.47;1721000;81;25796;-82
2022/07/22 05:14:38;;;;;;;12.35;6.08;;;;;;;21.58;73.40;100689.31;1719358;82;27479;-84
2022/07/22 05:17:11;;;;;;;12.68;6.03;;;;;;;21.66;72.76;100694.33;1718592;83;26081;-83
2022/07/22 05:19:40;;;;;;;13.93;6.12;;;;;;;21.74;72.73;100697.95;1708400;81;25814;-83
2022/07/22 05:22:07;;;;;;;11.55;5.47;;;;;;;21.82;72.55;100693.92;1714260;81;26473;-82
2022/07/22 05:24:35;;;;;;;12.80;6.20;;;;;;;21.88;72.41;100699.20;1710155;81;26749;-83
2022/07/22 05:27:02;;;;;;;7.12;5.75;;;;;;;21.97;72.23;100693.56;1713183;81;28487;-83
2022/07/22 05:29:29;;;;;;;11.18;7.03;;;;;;;22.06;72.38;100687.09;1718285;83;25971;-83
2022/07/22 05:31:56;;;;;;;9.43;5.83;;;;;;;22.15;72.10;100686.91;1717451;82;25680;-83
2022/07/22 05:34:22;;;;;;;9.80;6.00;;;;;;;22.25;71.79;100696.52;1717780;83;25834;-83
2022/07/22 05:36:51;;;;;;;11.43;5.87;;;;;;;22.35;71.46;100696.59;1717603;83;25994;-84
2022/07/22 05:39:18;;;;;;;7.62;6.15;;;;;;;22.44;71.27;100706.48;1718633;83;27437;-85
2022/07/22 05:41:44;;;;;;;12.73;5.80;;;;;;;22.55;71.20;100706.31;1715908;82;25984;-84
2022/07/22 05:44:10;;;;;;;12.25;6.20;;;;;;;22.64;70.93;100707.50;1718381;83;25843;-83
2022/07/22 05:46:37;;;;;;;10.00;6.00;;;;;;;22.73;70.13;100705.89;1705958;83;26571;-83
2022/07/22 05:49:05;;;;;;;11.43;6.00;;;;;;;22.82;69.44;100708.41;1699430;83;26210;-83
2022/07/22 05:51:34;;;;;;;8.58;6.20;;;;;;;22.91;68.68;100710.94;1719310;81;27468;-82
2022/07/22 05:54:02;;;;;;;14.25;6.85;;;;;;;23.00;68.36;100716.18;1717693;83;25848;-84
2022/07/22 05:56:29;;;;;;;12.33;6.85;;;;;;;23.08;68.09;100716.20;1723182;83;26167;-83
2022/07/22 05:58:58;;;;;;;10.50;6.22;;;;;;;23.16;67.45;100726.62;1718932;83;25932;-83
2022/07/22 06:01:26;;;;;;;12.53;6.47;;;;;;;23.24;67.26;100732.14;1721581;81;26018;-83
2022/07/22 06:03:53;;;;;;;9.08;6.12;;;;;;;23.31;66.75;100728.63;1720154;81;27536;-84
2022/07/22 06:06:19;;;;;;;8.68;6.20;;;;;;;23.36;66.53;100730.84;1718704;83;25780;-84
2022/07/22 06:08:46;;;;;;;13.80;7.10;;;;;;;23.42;66.01;100724.84;1716196;83;25766;-84
2022/07/22 06:11:12;;;;;;;9.43;6.25;;;;;;;23.49;65.95;100728.16;1698238;82;25778;-83
2022/07/22 06:13:39;;;;;;;13.68;6.55;;;;;;;23.59;65.80;100726.81;1718632;83;25948;-82
2022/07/22 06:16:07;;;;;;;12.68;7.22;;;;;;;23.66;65.07;100727.39;1718826;83;27092;-83
2022/07/22 06:18:33;;;;;;;11.22;6.35;;;;;;;23.73;65.03;100726.06;1718067;83;25920;-83
2022/07/22 06:21:00;;;;;;;12.07;6.40;;;;;;;23.80;64.81;100718.97;1720364;81;25323;-84
2022/07/22 06:23:27;;;;;;;10.15;6.55;;;;;;;23.88;64.93;100716.23;1722256;81;25983;-83
2022/07/22 06:25:53;;;;;;;13.78;8.03;;;;;;;23.96;64.76;100720.62;1717773;83;26068;-83
2022/07/22 06:28:21;;;;;;;12.18;6.65;;;;;;;24.03;64.35;100720.35;1717399;83;27465;-83
2022/07/22 06:30:47;;;;;;;11.80;7.33;;;;;;;24.06;63.98;100717.91;1718234;83;25795;-83
2022/07/22 06:33:14;;;;;;;16.97;6.97;;;;;;;24.13;63.71;100723.12;1718496;82;25844;-84
2022/07/22 06:35:41;;;;;;;10.58;6.70;;;;;;;24.19;63.60;100722.85;1718703;83;25769;-84
2022/07/22 06:38:08;;;;;;;10.93;7.15;;;;;;;24.25;63.68;100725.86;1718454;83;25790;-84
2022/07/22 06:40:36;;;;;;;11.20;7.58;;;;;;;24.31;63.63;100723.96;1716000;83;28260;-83
2022/07/22 06:43:05;;;;;;;17.35;8.95;;;;;;;24.40;63.32;100736.02;1714154;82;25777;-83
2022/07/22 06:45:36;;;;;;;12.45;8.40;;;;;;;24.44;62.97;100736.53;1715562;83;25962;-82
2022/07/22 06:48:13;;;;;;;14.98;8.20;;;;;;;24.51;62.83;100737.63;1686483;84;26293;-83
2022/07/22 06:50:40;;;;;;;14.58;9.03;;;;;;;24.59;62.92;100734.90;1674363;85;25803;-84
2022/07/22 06:53:08;;;;;;;16.10;9.03;;;;;;;24.64;61.91;100737.07;1675153;84;27478;-83
2022/07/22 06:55:34;;;;;;;19.48;10.88;;;;;;;24.68;61.83;100741.47;1676263;84;25847;-83
2022/07/22 06:58:05;;;;;;;13.68;9.00;;;;;;;24.72;61.26;100743.35;1676763;84;25355;-83
2022/07/22 07:00:32;;;;;;;11.63;10.43;;;;;;;24.77;61.53;100746.67;1686747;84;25932;-84
2022/07/22 07:03:16;;;;;;;19.45;10.48;;;;;;;24.82;61.63;100737.91;1692559;83;25941;-81
2022/07/22 07:05:43;;;;;;;17.25;11.10;;;;;;;24.87;61.59;100741.98;1721093;81;27619;-81
2022/07/22 07:08:09;;;;;;;15.80;11.50;;;;;;;24.92;61.37;100737.05;1722000;81;25862;-81
2022/07/22 07:10:36;;;;;;;17.90;11.48;;;;;;;24.97;61.37;100739.78;1718209;82;26591;-81
2022/07/22 07:13:05;;;;;;;17.73;12.25;;;;;;;25.02;61.53;100741.16;1723445;82;25981;-81
2022/07/22 07:15:38;;;;;;;16.80;12.90;;;;;;;25.07;61.57;100739.75;1724400;82;25947;-83
2022/07/22 07:18:06;;;;;;;16.50;12.10;;;;;;;25.12;61.90;100737.83;1719475;81;27467;-83
2022/07/22 07:20:33;;;;;;;15.60;12.37;;;;;;;25.19;61.76;100738.34;1717972;83;26391;-81
2022/07/22 07:23:05;;;;;;;16.02;12.15;;;;;;;25.28;61.95;100729.55;1718696;82;26507;-83
2022/07/22 07:25:30;;;;;;;;;;;;;;;25.35;61.92;100726.77;1720321;83;26559;-82
2022/07/22 07:27:56;;;;;;;21.00;13.78;;;;;;;25.45;61.92;100729.48;1722865;81;25736;-82
2022/07/22 07:30:25;;;;;;;19.00;12.80;;;;;;;25.49;61.80;100733.30;1743147;81;28500;-82
2022/07/22 07:32:51;;;;;;;16.40;13.58;;;;;;;25.55;61.67;100728.63;1727095;81;25829;-82
2022/07/22 07:35:18;;;;;;;19.42;14.05;;;;;;;25.64;62.04;100734.59;1709285;83;25845;-82
2022/07/22 07:37:45;;;;;;;17.42;15.00;;;;;;;25.75;63.03;100731.24;1725023;83;25942;-82
2022/07/22 07:40:13;;;;;;;19.05;13.78;;;;;;;25.89;61.65;100728.16;1734833;81;25960;-82
2022/07/22 07:42:39;;;;;;;20.50;12.65;;;;;;;25.97;61.51;100731.11;1707279;83;27456;-83
2022/07/22 07:45:08;;;;;;;20.77;13.58;;;;;;;26.05;62.49;100726.13;1730102;81;25896;-82
2022/07/22 07:47:34;;;;;;;14.50;12.75;;;;;;;26.13;60.96;100723.62;1734355;81;25771;-81
2022/07/22 07:50:05;;;;;;;19.35;13.60;;;;;;;26.19;61.43;100729.89;1700975;83;25965;-82
2022/07/22 07:52:41;;;;;;;19.25;13.75;;;;;;;26.28;61.02;100724.85;1699726;83;25952;-82
2022/07/22 07:55:09;;;;;;;19.00;13.30;;;;;;;26.31;60.49;100723.47;1706449;83;27452;-82
2022/07/22 07:57:36;;;;;;;24.47;13.20;;;;;;;26.32;60.43;100717.70;1706267;83;26465;-82
2022/07/22 08:00:09;;;;;;;18.00;13.20;;;;;;;26.39;60.45;100711.87;1718387;81;25317;-81
2022/07/22 08:02:37;;;;;;;18.48;13.03;;;;;;;26.42;60.02;100720.90;1721772;81;25903;-81
2022/07/22 08:05:06;;;;;;;23.83;13.80;;;;;;;26.50;60.37;100716.15;1729161;81;25917;-82
2022/07/22 08:07:32;;;;;;;17.73;12.60;;;;;;;26.55;59.90;100721.61;1715345;81;27466;-82
2022/07/22 08:09:59;;;;;;;16.93;11.95;;;;;;;26.63;60.58;100714.10;1708489;83;26554;-82
2022/07/22 08:12:27;;;;;;;16.00;12.23;;;;;;;26.70;59.92;100720.09;1724380;80;26079;-83
2022/07/22 08:15:11;;;;;;;18.40;12.23;;;;;;;26.79;59.35;100720.30;1665129;85;25845;-83
2022/07/22 08:17:48;;;;;;;18.00;12.07;;;;;;;26.82;59.00;100721.11;1703460;83;25343;-83
2022/07/22 08:20:15;;;;;;;16.07;11.75;;;;;;;26.90;58.58;100724.05;1724385;81;27431;-83
2022/07/22 08:25:30;;;;;;;18.20;11.78;;;;;;;27.10;57.24;100724.34;1685744;82;26334;-82
2022/07/22 08:27:56;;;;;;;13.65;11.05;;;;;;;27.18;56.61;100723.14;1653366;84;25833;-82
2022/07/22 08:30:23;;;;;;;14.38;11.68;;;;;;;27.23;58.07;100725.02;1693474;84;25862;-81
2022/07/22 08:32:50;;;;;;;16.73;12.47;;;;;;;27.31;58.24;100727.94;1693093;84;28308;-81
2022/07/22 08:35:18;;;;;;;18.05;12.68;;;;;;;27.42;57.35;100730.03;1657884;84;25865;-81
2022/07/22 08:37:47;;;;;;;16.85;11.28;;;;;;;27.48;57.30;100721.42;1668100;84;25496;-81
2022/07/22 08:40:16;;;;;;;16.52;11.93;;;;;;;27.50;55.88;100726.65;1640383;86;26597;-81
2022/07/22 08:42:45;;;;;;;14.55;11.00;;;;;;;27.52;56.28;100729.09;1680024;84;25837;-82
2022/07/22 08:45:12;;;;;;;15.90;11.12;;;;;;;27.48;55.77;100721.97;1665855;84;27476;-81
2022/07/22 08:47:38;;;;;;;15.78;11.08;;;;;;;27.45;55.62;100722.03;1663473;84;25701;-82
2022/07/22 08:50:13;;;;;;;15.40;12.50;;;;;;;27.53;55.89;100730.72;1664703;84;25843;-81
2022/07/22 08:52:44;;;;;;;13.45;12.05;;;;;;;27.62;55.97;100723.45;1688291;83;25837;-81
2022/07/22 08:55:10;;;;;;;12.65;11.33;;;;;;;27.69;56.27;100719.23;1651479;86;25955;-82
2022/07/22 08:57:37;;;;;;;14.35;11.25;;;;;;;27.72;56.44;100728.25;1643351;86;27472;-82
2022/07/22 09:00:15;;;;;;;19.25;12.43;;;;;;;27.82;56.33;100722.59;1617617;87;25881;-82
2022/07/22 09:02:43;;;;;;;13.00;11.20;;;;;;;27.91;55.70;100712.55;1659603;86;25355;-82
2022/07/22 09:05:15;;;;;;;14.78;12.30;;;;;;;27.98;54.64;100709.45;1650553;86;26667;-80
2022/07/22 09:07:44;;;;;;;16.40;13.00;;;;;;;27.93;54.78;100708.94;1654659;85;26033;-82
2022/07/22 09:10:18;;;;;;;13.62;11.65;;;;;;;27.96;55.17;100708.34;1645525;86;27491;-82
2022/07/22 09:13:07;;;;;;;14.38;12.10;;;;;;;28.01;54.66;100717.12;1656104;85;25308;-82
2022/07/22 09:15:52;;;;;;;12.58;11.28;;;;;;;27.94;54.91;100712.52;1655697;85;25852;-83
2022/07/22 09:18:53;;;;;;;16.75;12.13;;;;;;;27.98;54.95;100717.71;1656415;85;26044;-80
2022/07/22 09:21:42;;;;;;;16.48;12.03;;;;;;;28.06;55.61;100719.23;1658514;85;25967;-80
2022/07/22 09:24:35;;;;;;;17.20;11.65;;;;;;;28.16;54.70;100716.89;1647668;85;27497;-85
2022/07/22 09:27:06;;;;;;;18.12;11.65;;;;;;;28.24;54.42;100718.95;1640475;85;25985;-82
2022/07/22 09:29:34;;;;;;;13.40;11.03;;;;;;;28.37;54.81;100713.22;1668605;85;25885;-82
2022/07/22 09:32:11;;;;;;;13.30;11.15;;;;;;;28.46;52.87;100713.62;1623463;87;25837;-81
2022/07/22 09:34:40;;;;;;;16.00;11.05;;;;;;;28.54;53.54;100710.16;1632507;87;25984;-82
2022/07/22 09:37:08;;;;;;;14.53;11.48;;;;;;;28.58;53.19;100711.78;1613118;87;27490;-83
2022/07/22 09:39:35;;;;;;;17.67;11.73;;;;;;;28.63;52.87;100708.94;1635842;86;25326;-82
2022/07/22 09:42:07;;;;;;;12.73;11.43;;;;;;;28.70;53.22;100703.27;1659989;85;25956;-82
2022/07/22 09:44:34;;;;;;;12.30;10.98;;;;;;;28.74;53.31;100705.67;1659759;85;26549;-83
2022/07/22 09:47:02;;;;;;;11.43;10.13;;;;;;;28.75;52.54;100705.94;1626806;87;25827;-82
2022/07/22 09:49:41;;;;;;;16.40;10.60;;;;;;;28.80;52.69;100710.55;1643866;86;28273;-81
2022/07/22 10:31:46;;;;;;;9.78;8.28;;;;;;;29.81;50.84;100682.23;1844217;76;26354;-78
2022/07/22 10:34:12;;;;;;;9.85;7.67;;;;;;;29.74;49.68;100679.91;1790605;77;25811;-78
2022/07/22 10:36:42;;;;;;;8.93;8.00;;;;;;;29.73;50.38;100676.32;1804093;78;28243;-76
2022/07/22 10:39:12;;;;;;;;;;;;;;;29.78;49.37;100678.70;1816148;77;25784;-76
2022/07/22 10:41:42;;;;;;;13.90;8.43;;;;;;;29.84;48.55;100674.13;1802156;78;25705;-76
2022/07/22 10:44:09;;;;;;;10.05;7.95;;;;;;;29.89;48.38;100672.64;1821076;78;33073;-77
2022/07/22 10:46:52;;;;;;;11.88;7.97;;;;;;;29.97;47.41;100672.44;1821721;78;25942;-77
2022/07/22 10:49:24;;;;;;;9.65;7.92;;;;;;;30.04;47.24;100670.06;1819351;78;27515;-77
2022/07/22 10:52:12;;;;;;;10.65;7.75;;;;;;;30.14;47.59;100675.33;1808920;78;26407;-77
2022/07/22 10:55:19;;;;;;;11.83;8.40;;;;;;;30.23;47.20;100676.21;1789282;80;25804;-78
2022/07/22 10:57:46;;;;;;;8.30;7.42;;;;;;;30.30;46.68;100671.06;1794237;77;26145;-77
2022/07/22 11:00:13;;;;;;;12.10;7.50;;;;;;;30.41;46.18;100680.76;1755555;80;25763;-78
2022/07/22 11:02:40;;;;;;;7.50;6.70;;;;;;;30.46;45.66;100674.52;1767431;79;27428;-76
2022/07/22 11:05:08;;;;;;;9.13;7.53;;;;;;;30.56;45.47;100682.30;1776294;79;26156;-76
2022/07/22 11:07:44;;;;;;;8.95;7.72;;;;;;;30.66;45.62;100680.63;1773062;80;26024;-77
2022/07/22 11:10:15;;;;;;;9.33;8.33;;;;;;;30.74;46.55;100679.29;1756642;79;25689;-75
2022/07/22 11:12:44;;;;;;;10.45;8.10;;;;;;;30.86;46.00;100681.50;1770025;78;25964;-75
2022/07/22 11:15:11;;;;;;;9.38;7.90;;;;;;;30.94;45.87;100682.09;1751536;79;27462;-74
2022/07/22 11:17:39;;;;;;;10.75;8.05;;;;;;;30.97;44.85;100673.95;1756255;80;25779;-75
2022/07/22 11:20:09;;;;;;;11.30;7.97;;;;;;;31.01;44.90;100684.63;1755473;80;25881;-77
2022/07/22 11:22:36;;;;;;;12.25;8.13;;;;;;;31.03;44.60;100680.97;1678155;84;25881;-74
2022/07/22 11:25:07;;;;;;;10.30;7.95;;;;;;;31.07;43.72;100674.25;1747574;80;26434;-75
2022/07/22 11:27:34;;;;;;;10.58;8.48;;;;;;;31.03;43.60;100677.41;1706465;82;27457;-74
2022/07/22 11:30:03;;;;;;;10.25;7.62;;;;;;;31.03;43.74;100674.05;1707110;81;25867;-75
2022/07/22 11:32:31;;;;;;;12.70;9.15;;;;;;;31.08;43.96;100668.38;1747035;81;25809;-76
2022/07/22 11:34:59;;;;;;;17.20;11.12;;;;;;;31.14;43.40;100673.19;1751292;81;25302;-74
2022/07/22 11:37:28;;;;;;;10.65;8.98;;;;;;;31.18;43.72;100674.17;1728285;81;25746;-76
2022/07/22 11:40:05;;;;;;;13.28;8.85;;;;;;;31.25;44.49;100670.38;1748553;81;28215;-74
2022/07/22 11:42:31;;;;;;;10.88;9.10;;;;;;;31.29;43.65;100670.56;1744606;80;26513;-75
2022/07/22 11:44:58;;;;;;;16.30;8.13;;;;;;;31.29;44.05;100669.18;1708308;81;25774;-77
2022/07/22 11:47:24;;;;;;;12.13;7.92;;;;;;;31.32;44.30;100665.19;1741881;80;25909;-75
2022/07/22 11:49:51;;;;;;;19.00;8.90;;;;;;;31.39;43.91;100669.69;1749737;80;25759;-75
2022/07/22 11:52:18;;;;;;;10.00;8.43;;;;;;;31.40;43.90;100663.02;1750641;80;27323;-75
2022/07/22 11:54:46;;;;;;;10.88;8.13;;;;;;;31.43;43.58;100666.55;1742257;80;26612;-77
2022/07/22 11:57:14;;;;;;;50.73;18.82;;;;;;;31.47;44.37;100663.37;1741208;80;25810;-75
2022/07/22 11:59:41;;;;;;;10.98;8.73;;;;;;;31.54;43.19;100663.71;1663709;84;26224;-75
2022/07/22 12:02:11;;;;;;;11.18;7.72;;;;;;;31.60;43.67;100662.41;1699784;82;25739;-74
2022/07/22 12:04:38;;;;;;;9.60;8.63;;;;;;;31.64;43.69;100664.77;1711347;83;27446;-75